Time;durP1;ratioP1;P1;durP2;ratioP2;P2;SDS_P1;SDS_P2;PMS_P1;PMS_P2;Temp;Humidity;BMP_temperature;BMP_pressure;BME280_temperature;BME280_humidity;BME280_pressure;Samples;Min_cycle;Max_cycle;Signal;HPM_P1;HPM_P2
2023/11/26 00:00:51;;;;;;;16.00;15.50;;;4.00;99.90;;;;;;5074469;28;21148;-72
2023/11/26 00:03:18;;;;;;;16.37;15.77;;;4.10;99.90;;;;;;5084802;28;21022;-72
2023/11/26 00:05:45;;;;;;;15.97;15.47;;;4.00;99.90;;;;;;5076360;28;20451;-72
2023/11/26 00:08:13;;;;;;;16.60;16.00;;;4.00;99.90;;;;;;5077007;28;20473;-74
2023/11/26 00:10:40;;;;;;;15.90;15.40;;;4.10;99.90;;;;;;5086870;28;20464;-72
2023/11/26 00:13:08;;;;;;;16.53;15.93;;;4.10;99.90;;;;;;5097794;28;20461;-73
2023/11/26 00:15:35;;;;;;;15.83;15.33;;;4.10;99.90;;;;;;5079625;28;20469;-72
2023/11/26 00:18:02;;;;;;;17.07;16.47;;;4.10;99.90;;;;;;5079487;28;20460;-72
2023/11/26 00:20:29;;;;;;;16.63;16.03;;;4.10;99.90;;;;;;5075774;28;20863;-69
2023/11/26 00:22:56;;;;;;;17.00;16.40;;;4.10;99.90;;;;;;5092047;28;20462;-70
2023/11/26 00:25:24;;;;;;;15.93;15.43;;;4.10;99.90;;;;;;5086869;28;20480;-70
2023/11/26 00:27:50;;;;;;;16.33;15.73;;;4.00;99.90;;;;;;5077369;28;20469;-72
2023/11/26 00:30:19;;;;;;;17.73;17.03;;;3.90;99.90;;;;;;5087150;28;20457;-72
2023/11/26 00:32:47;;;;;;;18.10;17.40;;;3.80;99.90;;;;;;5091266;28;20604;-70
2023/11/26 00:35:14;;;;;;;16.93;16.33;;;3.80;99.90;;;;;;5083738;28;20578;-72
2023/11/26 00:37:41;;;;;;;16.87;16.27;;;3.70;99.90;;;;;;5074538;28;20506;-72
2023/11/26 00:40:09;;;;;;;17.10;16.50;;;3.60;99.90;;;;;;5080034;28;20550;-72
2023/11/26 00:42:36;;;;;;;18.23;17.53;;;3.40;99.90;;;;;;5083396;28;20499;-72
2023/11/26 00:45:03;;;;;;;17.90;17.20;;;3.30;99.90;;;;;;5087395;28;20943;-72
2023/11/26 00:47:31;;;;;;;18.60;17.90;;;3.30;99.90;;;;;;5075998;28;20473;-71
2023/11/26 00:50:01;;;;;;;18.27;17.57;;;3.20;99.90;;;;;;5082240;28;20469;-72
2023/11/26 00:52:28;;;;;;;18.17;17.47;;;3.20;99.90;;;;;;5087137;28;20842;-70
2023/11/26 00:54:54;;;;;;;17.90;17.20;;;3.10;99.90;;;;;;5092847;28;20521;-71
2023/11/26 00:57:21;;;;;;;18.17;17.47;;;3.00;99.90;;;;;;5083164;28;20530;-71
2023/11/26 00:59:48;;;;;;;18.27;17.57;;;2.90;99.90;;;;;;5078186;28;20977;-71
2023/11/26 01:02:15;;;;;;;17.97;17.27;;;2.70;99.90;;;;;;5097688;28;20454;-73
2023/11/26 01:04:44;;;;;;;19.03;18.23;;;2.60;99.90;;;;;;5081476;28;20963;-73
2023/11/26 01:07:12;;;;;;;18.80;18.00;;;2.50;99.90;;;;;;5087190;28;20456;-71
2023/11/26 01:09:39;;;;;;;18.80;18.00;;;2.40;99.90;;;;;;5084750;28;20824;-70
2023/11/26 01:12:07;;;;;;;19.60;18.80;;;2.40;99.90;;;;;;5079277;28;20537;-70
2023/11/26 01:14:34;;;;;;;20.93;20.03;;;2.40;99.90;;;;;;5090881;28;20443;-71
2023/11/26 01:17:00;;;;;;;20.40;19.50;;;2.30;99.90;;;;;;5097102;28;20460;-71
2023/11/26 01:19:27;;;;;;;19.00;18.20;;;2.20;99.90;;;;;;5082705;28;20479;-70
2023/11/26 01:21:55;;;;;;;19.40;18.60;;;2.10;99.90;;;;;;5082293;28;20517;-71
2023/11/26 01:24:22;;;;;;;20.40;19.50;;;2.00;99.90;;;;;;5080556;28;20580;-70
2023/11/26 01:26:49;;;;;;;20.50;19.60;;;2.00;99.90;;;;;;5077932;28;20494;-69
2023/11/26 01:29:16;;;;;;;19.73;18.83;;;2.00;99.90;;;;;;5088571;28;20599;-70
2023/11/26 01:31:43;;;;;;;20.10;19.20;;;2.00;99.90;;;;;;5087965;28;20819;-71
2023/11/26 01:34:09;;;;;;;20.20;19.40;;;2.10;99.90;;;;;;5086428;28;20470;-69
2023/11/26 01:36:36;;;;;;;18.70;18.00;;;2.10;99.90;;;;;;5077113;28;20464;-71
2023/11/26 01:39:07;;;;;;;19.83;19.03;;;2.20;99.90;;;;;;5078451;28;20487;-69
2023/11/26 01:41:34;;;;;;;19.00;18.30;;;2.20;99.90;;;;;;5089105;28;20458;-70
2023/11/26 01:44:01;;;;;;;18.50;17.80;;;2.20;99.90;;;;;;5085006;28;20471;-71
2023/11/26 01:46:29;;;;;;;19.17;18.37;;;2.20;99.90;;;;;;5081877;28;20985;-69
2023/11/26 01:48:57;;;;;;;18.50;17.80;;;2.30;99.90;;;;;;5085695;28;20459;-70
2023/11/26 01:51:26;;;;;;;19.20;18.43;;;2.20;99.90;;;;;;5088835;28;20462;-69
2023/11/26 01:53:53;;;;;;;18.57;17.87;;;2.20;99.90;;;;;;5072217;28;20463;-71
2023/11/26 01:56:22;;;;;;;18.13;17.43;;;2.20;99.90;;;;;;5088452;28;20447;-69
2023/11/26 01:58:49;;;;;;;17.50;16.90;;;2.10;99.90;;;;;;5081835;28;20482;-71
2023/11/26 02:01:21;;;;;;;17.23;16.63;;;2.20;99.90;;;;;;5086007;28;20490;-71
2023/11/26 02:03:49;;;;;;;18.47;17.77;;;2.20;99.90;;;;;;5090047;28;20466;-73
2023/11/26 02:06:17;;;;;;;17.33;16.67;;;2.20;99.90;;;;;;5074528;28;20469;-71
2023/11/26 02:08:44;;;;;;;17.83;17.13;;;2.10;99.90;;;;;;5086136;28;20459;-69
2023/11/26 02:11:11;;;;;;;17.50;16.90;;;2.10;99.90;;;;;;5086335;28;20460;-70
2023/11/26 02:13:46;;;;;;;18.27;17.57;;;2.20;99.90;;;;;;5079592;28;21035;-69
2023/11/26 02:16:14;;;;;;;18.10;17.40;;;2.20;99.90;;;;;;5093014;28;20957;-69
2023/11/26 02:18:42;;;;;;;17.60;17.00;;;2.30;99.90;;;;;;5089408;28;20473;-69
2023/11/26 02:21:10;;;;;;;16.80;16.20;;;2.30;99.90;;;;;;5086893;28;20806;-70
2023/11/26 02:23:37;;;;;;;17.77;17.17;;;2.30;99.90;;;;;;5075842;28;20459;-69
2023/11/26 02:26:09;;;;;;;18.10;17.40;;;2.30;99.90;;;;;;5080073;28;20490;-70
2023/11/26 02:28:36;;;;;;;16.80;16.20;;;2.30;99.90;;;;;;5086345;28;20866;-69
2023/11/26 02:31:03;;;;;;;17.10;16.50;;;2.40;99.90;;;;;;5084072;28;20462;-71
2023/11/26 02:33:30;;;;;;;17.10;16.50;;;2.40;99.90;;;;;;5083507;28;20526;-69
2023/11/26 02:35:58;;;;;;;17.10;16.50;;;2.40;99.90;;;;;;5071529;28;20458;-69
2023/11/26 02:38:25;;;;;;;16.60;16.10;;;2.40;99.90;;;;;;5085164;28;20470;-70
2023/11/26 02:40:52;;;;;;;16.80;16.20;;;2.50;99.90;;;;;;5082914;28;20458;-71
2023/11/26 02:43:20;;;;;;;16.93;16.33;;;2.40;99.90;;;;;;5088918;28;20477;-70
2023/11/26 02:45:51;;;;;;;18.30;17.70;;;2.40;99.90;;;;;;5087283;28;20553;-72
2023/11/26 02:48:19;;;;;;;16.97;16.37;;;2.50;99.90;;;;;;5081487;28;20459;-70
2023/11/26 02:50:46;;;;;;;17.10;16.50;;;2.50;99.90;;;;;;5087740;28;20542;-71
2023/11/26 02:53:12;;;;;;;17.27;16.67;;;2.50;99.90;;;;;;5071589;28;20530;-71
2023/11/26 02:55:39;;;;;;;17.33;16.73;;;2.60;99.90;;;;;;5074965;28;20472;-70
2023/11/26 02:58:09;;;;;;;17.10;16.50;;;2.60;99.90;;;;;;5083518;28;20466;-70
2023/11/26 03:00:37;;;;;;;18.20;17.50;;;2.60;99.90;;;;;;5088855;28;20867;-71
2023/11/26 03:03:05;;;;;;;15.93;15.43;;;2.50;99.90;;;;;;5078993;28;21007;-71
2023/11/26 03:05:32;;;;;;;18.33;17.63;;;2.50;99.90;;;;;;5081953;28;20481;-71
2023/11/26 03:08:08;;;;;;;18.13;17.47;;;2.50;99.90;;;;;;5072282;28;20466;-71
2023/11/26 03:13:21;;;;;;;18.27;17.57;;;2.50;99.90;;;;;;5072233;28;21174;-69
2023/11/26 03:15:50;;;;;;;17.93;17.33;;;2.40;99.90;;;;;;5088232;28;20457;-70
2023/11/26 03:18:17;;;;;;;17.77;17.17;;;2.50;99.90;;;;;;5087109;28;20502;-71
2023/11/26 03:20:45;;;;;;;17.57;16.97;;;2.50;99.90;;;;;;5081362;28;20504;-70
2023/11/26 03:23:14;;;;;;;17.17;16.57;;;2.40;99.90;;;;;;5075370;28;20462;-71
2023/11/26 03:25:41;;;;;;;17.50;16.90;;;2.40;99.90;;;;;;5084116;28;20827;-70
2023/11/26 03:28:08;;;;;;;17.67;17.07;;;2.40;99.90;;;;;;5077558;28;20474;-70
2023/11/26 03:30:35;;;;;;;18.03;17.40;;;2.30;99.90;;;;;;5085952;28;20459;-71
2023/11/26 03:33:04;;;;;;;18.17;17.47;;;2.40;99.90;;;;;;5077405;28;20893;-72
2023/11/26 03:35:31;;;;;;;19.10;18.40;;;2.40;99.90;;;;;;5079671;28;20455;-71
2023/11/26 03:37:58;;;;;;;19.50;18.70;;;2.40;99.90;;;;;;5075342;28;20545;-71
2023/11/26 03:40:25;;;;;;;18.30;17.60;;;2.30;99.90;;;;;;5080915;28;20466;-70
2023/11/26 03:42:52;;;;;;;18.83;18.13;;;2.30;99.90;;;;;;5086559;28;20550;-71
2023/11/26 03:45:18;;;;;;;17.50;16.90;;;2.30;99.90;;;;;;5075190;28;20566;-71
2023/11/26 03:47:46;;;;;;;17.93;17.33;;;2.30;99.90;;;;;;5086463;28;20506;-70
2023/11/26 03:50:15;;;;;;;17.40;16.80;;;2.30;99.90;;;;;;5088342;28;20451;-70
2023/11/26 03:52:43;;;;;;;17.47;16.87;;;2.30;99.90;;;;;;5074403;28;21089;-71
2023/11/26 03:55:10;;;;;;;17.37;16.77;;;2.30;99.90;;;;;;5072725;28;20487;-70
2023/11/26 03:57:38;;;;;;;18.37;17.67;;;2.20;99.90;;;;;;5076935;28;20465;-70
2023/11/26 04:00:08;;;;;;;17.87;17.20;;;2.20;99.90;;;;;;5088231;28;20466;-71
2023/11/26 04:02:35;;;;;;;18.97;18.27;;;2.10;99.90;;;;;;5079796;28;20481;-72
2023/11/26 04:05:02;;;;;;;19.00;18.30;;;2.20;99.90;;;;;;5082304;28;20467;-71
2023/11/26 04:07:31;;;;;;;19.70;18.90;;;2.20;99.90;;;;;;5078611;28;20518;-72
2023/11/26 04:09:58;;;;;;;18.60;17.90;;;2.20;99.90;;;;;;5085749;28;20458;-72
2023/11/26 04:12:26;;;;;;;17.33;16.73;;;2.30;99.90;;;;;;5070266;28;20482;-70
2023/11/26 04:14:54;;;;;;;17.57;16.97;;;2.30;99.90;;;;;;5073519;28;20590;-71
2023/11/26 04:17:21;;;;;;;18.30;17.60;;;2.30;99.90;;;;;;5091742;28;21008;-72
2023/11/26 04:19:49;;;;;;;18.33;17.67;;;2.30;99.90;;;;;;5085030;28;21012;-72
2023/11/26 04:22:18;;;;;;;17.60;17.00;;;2.30;99.90;;;;;;5083887;28;20574;-70
2023/11/26 04:24:46;;;;;;;18.07;17.47;;;2.30;99.90;;;;;;5077202;28;20496;-70
2023/11/26 04:27:13;;;;;;;17.57;16.97;;;2.40;99.90;;;;;;5087131;28;20451;-71
2023/11/26 04:29:40;;;;;;;17.30;16.70;;;2.50;99.90;;;;;;5093322;28;20969;-71
2023/11/26 04:32:08;;;;;;;17.50;16.90;;;2.50;99.90;;;;;;5087199;28;20860;-71
2023/11/26 04:34:35;;;;;;;17.20;16.60;;;2.50;99.90;;;;;;5091871;28;20548;-72
2023/11/26 04:37:02;;;;;;;18.60;17.90;;;2.60;99.90;;;;;;5088002;28;20451;-72
2023/11/26 04:39:29;;;;;;;17.90;17.30;;;2.70;99.90;;;;;;5079035;28;20469;-70
2023/11/26 04:41:57;;;;;;;18.60;17.90;;;2.70;99.90;;;;;;5074240;28;20492;-72
2023/11/26 04:44:24;;;;;;;17.67;17.07;;;2.70;99.90;;;;;;5087267;28;20810;-71
2023/11/26 04:46:51;;;;;;;17.17;16.57;;;2.80;99.90;;;;;;5091247;28;20490;-72
2023/11/26 04:49:19;;;;;;;17.57;16.97;;;2.80;99.90;;;;;;5086974;28;20547;-69
2023/11/26 04:51:46;;;;;;;18.80;18.10;;;2.90;99.90;;;;;;5080485;28;20573;-70
2023/11/26 04:54:13;;;;;;;19.33;18.63;;;2.90;99.90;;;;;;5091138;28;20842;-72
2023/11/26 04:56:41;;;;;;;18.17;17.53;;;3.00;99.90;;;;;;5081213;28;20459;-71
2023/11/26 04:59:10;;;;;;;19.07;18.37;;;2.90;99.90;;;;;;5089694;28;20483;-71
2023/11/26 05:01:43;;;;;;;19.50;18.80;;;2.90;99.90;;;;;;5076200;28;20530;-70
2023/11/26 05:04:10;;;;;;;18.70;18.00;;;2.90;99.90;;;;;;5084484;28;20895;-71
2023/11/26 05:06:37;;;;;;;18.00;17.40;;;2.80;99.90;;;;;;5086741;28;20455;-72
2023/11/26 05:09:11;;;;;;;18.57;17.87;;;2.80;99.90;;;;;;5085407;28;20968;-71
2023/11/26 05:11:37;;;;;;;18.80;18.10;;;2.80;99.90;;;;;;5076633;28;20464;-72
2023/11/26 05:14:04;;;;;;;18.20;17.60;;;2.90;99.90;;;;;;5074685;28;20484;-70
2023/11/26 05:16:33;;;;;;;18.70;18.00;;;3.00;99.90;;;;;;5090582;28;20458;-71
2023/11/26 05:19:00;;;;;;;17.63;17.03;;;3.00;99.90;;;;;;5079949;28;20491;-71
2023/11/26 05:21:27;;;;;;;17.97;17.37;;;2.90;99.90;;;;;;5085135;28;20574;-70
2023/11/26 05:23:55;;;;;;;17.97;17.37;;;2.90;99.90;;;;;;5086579;28;20889;-69
2023/11/26 05:26:37;;;;;;;17.87;17.27;;;3.00;99.90;;;;;;5071533;28;21051;-71
2023/11/26 05:29:05;;;;;;;17.10;16.50;;;2.90;99.90;;;;;;5087949;28;20478;-71
2023/11/26 05:31:33;;;;;;;18.23;17.60;;;2.90;99.90;;;;;;5086222;28;21043;-70
2023/11/26 05:34:00;;;;;;;19.00;18.30;;;2.90;99.90;;;;;;5088372;28;20522;-70
2023/11/26 05:36:27;;;;;;;18.47;17.77;;;2.90;99.90;;;;;;5087791;28;20493;-70
2023/11/26 05:38:55;;;;;;;18.20;17.50;;;2.90;99.90;;;;;;5076239;28;20470;-71
2023/11/26 05:41:24;;;;;;;18.83;18.13;;;2.80;99.90;;;;;;5084970;28;20463;-69
2023/11/26 05:43:51;;;;;;;18.43;17.73;;;2.90;99.90;;;;;;5093074;28;20460;-71
2023/11/26 05:46:18;;;;;;;17.53;16.93;;;3.00;99.90;;;;;;5076007;28;20472;-70
2023/11/26 05:48:46;;;;;;;17.40;16.80;;;3.00;99.90;;;;;;5086762;28;20459;-71
2023/11/26 05:51:13;;;;;;;16.23;15.73;;;3.00;99.90;;;;;;5073038;28;21017;-70
2023/11/26 05:53:40;;;;;;;16.00;15.50;;;3.20;99.90;;;;;;5086217;28;20526;-69
2023/11/26 05:56:07;;;;;;;15.70;15.20;;;3.30;99.90;;;;;;5077350;28;20471;-70
2023/11/26 05:58:35;;;;;;;16.20;15.70;;;3.30;99.90;;;;;;5083046;28;20660;-72
2023/11/26 06:01:02;;;;;;;15.50;15.00;;;3.50;99.90;;;;;;5078103;28;20466;-71
2023/11/26 06:03:29;;;;;;;15.57;15.07;;;3.50;99.90;;;;;;5083436;28;20469;-70
2023/11/26 06:05:57;;;;;;;15.47;14.97;;;3.50;99.90;;;;;;5083264;28;20468;-69
2023/11/26 06:08:24;;;;;;;16.60;16.10;;;3.60;99.90;;;;;;5075813;28;21023;-70
2023/11/26 06:10:51;;;;;;;16.37;15.87;;;3.60;99.90;;;;;;5079037;28;21164;-71
2023/11/26 06:13:17;;;;;;;19.00;18.30;;;3.60;99.90;;;;;;5084175;28;20486;-71
2023/11/26 06:15:44;;;;;;;17.87;17.27;;;3.70;99.90;;;;;;5081242;28;20849;-70
2023/11/26 06:18:11;;;;;;;18.10;17.50;;;3.60;99.90;;;;;;5084255;28;20446;-71
2023/11/26 06:20:38;;;;;;;17.23;16.63;;;3.70;99.90;;;;;;5082490;28;20455;-70
2023/11/26 06:23:07;;;;;;;18.97;18.27;;;3.70;99.90;;;;;;5073087;28;20542;-70
2023/11/26 06:25:34;;;;;;;19.27;18.57;;;3.70;99.90;;;;;;5083107;28;20478;-70
2023/11/26 06:28:01;;;;;;;18.10;17.50;;;3.70;99.90;;;;;;5083460;28;20491;-72
2023/11/26 06:30:29;;;;;;;17.40;16.80;;;3.80;99.90;;;;;;5077096;28;20500;-70
2023/11/26 06:32:56;;;;;;;19.10;18.40;;;3.80;99.90;;;;;;5085410;28;20493;-71
2023/11/26 06:35:23;;;;;;;18.70;18.00;;;3.90;99.90;;;;;;5071845;28;20465;-71
2023/11/26 06:37:50;;;;;;;17.33;16.73;;;3.90;99.90;;;;;;5083873;28;21220;-73
2023/11/26 06:40:19;;;;;;;17.40;16.80;;;3.90;99.90;;;;;;5078424;28;20464;-71
2023/11/26 06:42:46;;;;;;;18.70;18.00;;;3.90;99.90;;;;;;5081022;28;20977;-72
2023/11/26 06:45:13;;;;;;;19.37;18.67;;;3.90;99.90;;;;;;5081074;28;20902;-71
2023/11/26 06:47:40;;;;;;;18.97;18.27;;;4.00;99.90;;;;;;5086063;28;20453;-70
2023/11/26 06:50:08;;;;;;;18.67;17.97;;;4.00;99.90;;;;;;5074632;28;22515;-70
2023/11/26 06:52:35;;;;;;;18.63;17.93;;;4.00;99.90;;;;;;5077442;28;20483;-72
2023/11/26 06:55:03;;;;;;;19.13;18.43;;;4.10;99.90;;;;;;5087623;28;21255;-71
2023/11/26 06:57:32;;;;;;;19.50;18.80;;;4.10;99.90;;;;;;5067120;28;20469;-70
2023/11/26 07:00:00;;;;;;;18.10;17.40;;;4.10;99.90;;;;;;5082962;28;21002;-71
2023/11/26 07:02:27;;;;;;;18.90;18.20;;;4.10;99.90;;;;;;5098776;28;20465;-70
2023/11/26 07:04:54;;;;;;;18.33;17.63;;;4.10;99.90;;;;;;5081097;28;20849;-71
2023/11/26 07:07:22;;;;;;;19.70;18.90;;;4.20;99.90;;;;;;5081920;28;20465;-70
2023/11/26 07:09:49;;;;;;;16.90;16.30;;;4.20;99.90;;;;;;5079341;28;20814;-72
2023/11/26 07:12:17;;;;;;;17.80;17.10;;;4.10;99.90;;;;;;5085528;28;20458;-72
2023/11/26 07:14:45;;;;;;;19.30;18.50;;;4.20;99.90;;;;;;5084424;28;20494;-70
2023/11/26 07:17:13;;;;;;;18.93;18.23;;;4.20;99.90;;;;;;5078809;28;20569;-71
2023/11/26 07:19:41;;;;;;;17.33;16.73;;;4.30;99.90;;;;;;5081995;28;20528;-71
2023/11/26 07:22:08;;;;;;;18.20;17.50;;;4.20;99.90;;;;;;5078980;28;20459;-71
2023/11/26 07:24:35;;;;;;;17.10;16.50;;;4.30;99.90;;;;;;5077543;28;20502;-72
2023/11/26 07:27:03;;;;;;;16.63;16.03;;;4.30;99.90;;;;;;5075177;28;20949;-70
2023/11/26 07:29:31;;;;;;;16.80;16.20;;;4.30;99.90;;;;;;5085645;28;20551;-71
2023/11/26 07:31:59;;;;;;;18.10;17.40;;;4.30;99.90;;;;;;5079783;28;20925;-72
2023/11/26 07:34:27;;;;;;;17.40;16.80;;;4.30;99.90;;;;;;5089324;28;20578;-72
2023/11/26 07:36:53;;;;;;;17.53;16.83;;;4.30;99.90;;;;;;5075466;28;20573;-72
2023/11/26 07:39:20;;;;;;;18.00;17.30;;;4.40;99.90;;;;;;5081270;28;20524;-72
2023/11/26 07:41:47;;;;;;;16.93;16.33;;;4.50;99.90;;;;;;5081445;28;20460;-73
2023/11/26 07:44:14;;;;;;;16.83;16.23;;;4.50;99.90;;;;;;5077792;28;20461;-70
2023/11/26 07:46:41;;;;;;;16.33;15.80;;;4.60;99.90;;;;;;5085428;28;20524;-70
2023/11/26 07:49:09;;;;;;;17.70;17.07;;;4.60;99.90;;;;;;5082711;28;20508;-70
2023/11/26 07:51:38;;;;;;;17.30;16.70;;;4.70;99.90;;;;;;5082176;28;20867;-71
2023/11/26 07:54:05;;;;;;;17.23;16.57;;;4.70;99.90;;;;;;5085053;28;20575;-71
2023/11/26 07:56:35;;;;;;;17.33;16.73;;;4.80;99.90;;;;;;5084775;28;20896;-72
2023/11/26 07:59:06;;;;;;;16.13;15.63;;;4.90;99.90;;;;;;5086800;28;20493;-70
2023/11/26 08:01:34;;;;;;;16.47;15.87;;;4.80;99.90;;;;;;5082180;28;20461;-72
2023/11/26 08:04:02;;;;;;;16.07;15.57;;;4.90;99.90;;;;;;5079643;28;20508;-70
2023/11/26 08:06:31;;;;;;;16.80;16.20;;;5.00;99.90;;;;;;5083741;28;20466;-72
2023/11/26 08:08:58;;;;;;;17.10;16.50;;;5.10;99.90;;;;;;5083433;28;20492;-72
2023/11/26 08:11:28;;;;;;;16.10;15.60;;;5.20;99.90;;;;;;5089997;28;20455;-70
2023/11/26 08:13:56;;;;;;;16.10;15.60;;;5.10;99.90;;;;;;5088273;28;20538;-70
2023/11/26 08:16:24;;;;;;;15.67;15.17;;;5.20;99.90;;;;;;5081568;28;20471;-70
2023/11/26 08:18:56;;;;;;;15.90;15.40;;;5.20;99.90;;;;;;5077598;28;20481;-72
2023/11/26 08:21:23;;;;;;;15.70;15.20;;;5.30;99.90;;;;;;5081581;28;21053;-70
2023/11/26 08:23:54;;;;;;;14.77;14.37;;;5.30;99.90;;;;;;5082694;28;20493;-69
2023/11/26 08:26:22;;;;;;;14.90;14.40;;;5.30;99.90;;;;;;5094087;28;20537;-70
2023/11/26 08:28:49;;;;;;;14.67;14.27;;;5.30;99.90;;;;;;5089641;28;20767;-70
2023/11/26 08:31:16;;;;;;;14.30;13.90;;;5.40;99.90;;;;;;5083299;28;20460;-72
2023/11/26 08:33:44;;;;;;;14.13;13.73;;;5.30;99.90;;;;;;5082252;28;20906;-72
2023/11/26 08:36:15;;;;;;;14.10;13.70;;;5.40;99.90;;;;;;5080240;28;20478;-72
2023/11/26 08:38:43;;;;;;;14.40;14.00;;;5.40;99.90;;;;;;5078895;28;20466;-70
2023/11/26 08:41:13;;;;;;;13.20;12.80;;;5.50;99.90;;;;;;5086620;28;20453;-70
2023/11/26 08:43:41;;;;;;;13.37;12.97;;;5.50;99.90;;;;;;5070701;28;20469;-69
2023/11/26 08:46:09;;;;;;;13.23;12.83;;;5.60;99.90;;;;;;5078505;28;20466;-70
2023/11/26 08:48:37;;;;;;;13.70;13.30;;;5.60;99.90;;;;;;5078947;28;20466;-72
2023/11/26 08:51:05;;;;;;;13.30;12.90;;;5.60;99.90;;;;;;5084170;28;20587;-71
2023/11/26 08:53:33;;;;;;;13.30;12.90;;;5.60;99.90;;;;;;5077378;28;20506;-71
2023/11/26 08:56:00;;;;;;;12.77;12.47;;;5.70;99.90;;;;;;5075107;28;20467;-69
2023/11/26 08:58:28;;;;;;;11.90;11.60;;;5.70;99.90;;;;;;5082902;28;20467;-69
2023/11/26 09:00:57;;;;;;;12.10;11.80;;;5.80;99.90;;;;;;5089448;28;20480;-71
2023/11/26 09:03:25;;;;;;;11.77;11.47;;;5.80;99.90;;;;;;5089786;28;20991;-71
2023/11/26 09:05:52;;;;;;;12.50;12.20;;;5.90;99.90;;;;;;5078883;28;20508;-68
2023/11/26 09:08:19;;;;;;;11.37;11.07;;;6.00;99.90;;;;;;5082519;28;20452;-69
2023/11/26 09:10:48;;;;;;;11.80;11.50;;;6.00;99.90;;;;;;5079304;28;20466;-70
2023/11/26 09:13:14;;;;;;;11.50;11.20;;;6.00;99.90;;;;;;5089371;28;20457;-71
2023/11/26 09:15:43;;;;;;;9.97;9.77;;;6.00;99.90;;;;;;5078140;28;20498;-70
2023/11/26 09:18:10;;;;;;;10.27;10.07;;;5.90;99.90;;;;;;5085307;28;20975;-71
2023/11/26 09:20:37;;;;;;;9.83;9.63;;;6.00;99.90;;;;;;5081957;28;20579;-69
2023/11/26 09:23:04;;;;;;;9.63;9.43;;;6.10;99.90;;;;;;5080948;28;20515;-70
2023/11/26 09:25:33;;;;;;;8.90;8.80;;;6.20;99.90;;;;;;5086709;28;20568;-71
2023/11/26 09:27:59;;;;;;;8.43;8.33;;;6.20;99.90;;;;;;5085702;28;20523;-71
2023/11/26 09:30:26;;;;;;;8.30;8.20;;;6.20;99.90;;;;;;5079859;28;20458;-70
2023/11/26 09:32:54;;;;;;;7.60;7.50;;;6.30;99.90;;;;;;5084171;28;20461;-72
2023/11/26 09:35:21;;;;;;;7.70;7.60;;;6.30;99.90;;;;;;5078329;28;20569;-71
2023/11/26 09:37:48;;;;;;;7.17;7.07;;;6.40;99.90;;;;;;5081842;28;20552;-70
2023/11/26 09:40:14;;;;;;;7.30;7.20;;;6.30;99.90;;;;;;5086175;28;20466;-72
2023/11/26 09:42:45;;;;;;;7.03;6.93;;;6.40;99.90;;;;;;5087382;28;20476;-72
2023/11/26 09:45:12;;;;;;;6.70;6.60;;;6.40;99.90;;;;;;5074747;28;20463;-71
2023/11/26 09:47:39;;;;;;;6.43;6.33;;;6.30;99.90;;;;;;5083646;28;20463;-71
2023/11/26 09:50:09;;;;;;;6.17;6.07;;;6.50;99.90;;;;;;5079017;28;20470;-70
2023/11/26 09:52:37;;;;;;;6.07;5.97;;;6.50;99.90;;;;;;5081850;28;20462;-71
2023/11/26 09:55:04;;;;;;;6.70;6.60;;;6.40;99.90;;;;;;5079368;28;20492;-71
2023/11/26 09:57:31;;;;;;;6.10;6.00;;;6.60;99.90;;;;;;5079148;28;20465;-71
2023/11/26 09:59:59;;;;;;;6.40;6.30;;;6.60;99.90;;;;;;5088225;28;20454;-69
2023/11/26 10:02:25;;;;;;;6.20;6.10;;;6.70;99.90;;;;;;5085977;28;20454;-73
2023/11/26 10:04:54;;;;;;;6.17;6.07;;;6.60;99.90;;;;;;5088257;28;20473;-70
2023/11/26 10:07:34;;;;;;;6.10;6.00;;;6.70;99.90;;;;;;5079400;28;20571;-73
2023/11/26 10:10:03;;;;;;;6.83;6.73;;;6.70;99.90;;;;;;5087757;28;20446;-70
2023/11/26 10:12:29;;;;;;;6.33;6.23;;;6.80;99.90;;;;;;5072451;28;21015;-72
2023/11/26 10:15:06;;;;;;;6.70;6.60;;;6.80;99.90;;;;;;5090809;28;21009;-70
2023/11/26 10:17:34;;;;;;;6.80;6.70;;;6.80;99.90;;;;;;5081423;28;20459;-71
2023/11/26 10:20:17;;;;;;;6.60;6.50;;;6.90;99.90;;;;;;5088227;28;20555;-72
2023/11/26 10:22:49;;;;;;;6.73;6.63;;;6.90;99.90;;;;;;5078745;28;20991;-71
2023/11/26 10:25:16;;;;;;;6.63;6.53;;;6.90;99.90;;;;;;5088130;28;20857;-71
2023/11/26 10:27:43;;;;;;;6.77;6.67;;;7.00;99.90;;;;;;5081003;28;20489;-72
2023/11/26 10:30:22;;;;;;;7.13;7.03;;;7.00;99.90;;;;;;5068356;28;20472;-72
2023/11/26 10:32:59;;;;;;;6.27;6.17;;;7.10;99.90;;;;;;5082685;28;20450;-70
2023/11/26 10:35:26;;;;;;;6.00;5.90;;;7.10;99.90;;;;;;5087621;28;20503;-73
2023/11/26 10:38:09;;;;;;;6.60;6.50;;;7.20;99.90;;;;;;5096199;28;21073;-70
2023/11/26 10:40:37;;;;;;;7.20;7.10;;;7.30;99.90;;;;;;5070885;28;20545;-69
2023/11/26 10:43:07;;;;;;;7.33;7.23;;;7.30;99.90;;;;;;5074180;28;20458;-70
2023/11/26 10:45:35;;;;;;;7.67;7.57;;;7.40;99.90;;;;;;5084038;28;20897;-72
2023/11/26 10:48:08;;;;;;;8.17;8.07;;;7.40;99.90;;;;;;5077641;28;20585;-70
2023/11/26 10:50:41;;;;;;;7.50;7.40;;;7.50;99.90;;;;;;5081695;28;20457;-69
2023/11/26 10:53:21;;;;;;;7.03;6.93;;;7.40;99.90;;;;;;5078081;28;20465;-71
2023/11/26 10:55:50;;;;;;;7.90;7.80;;;7.60;99.90;;;;;;5087544;28;20498;-72
2023/11/26 10:58:18;;;;;;;7.30;7.20;;;7.60;99.90;;;;;;5080071;28;20463;-73
2023/11/26 11:00:49;;;;;;;7.90;7.80;;;7.60;99.90;;;;;;5091330;28;20454;-72
2023/11/26 11:03:18;;;;;;;8.20;8.10;;;7.60;99.90;;;;;;5080122;28;20526;-73
2023/11/26 11:05:47;;;;;;;7.23;7.13;;;7.60;99.90;;;;;;5077771;28;20543;-72
2023/11/26 11:08:16;;;;;;;7.60;7.50;;;7.50;99.90;;;;;;5082849;28;20558;-69
2023/11/26 11:10:51;;;;;;;8.80;8.70;;;7.50;99.90;;;;;;5079669;28;20473;-71
2023/11/26 11:13:19;;;;;;;9.07;8.87;;;7.50;99.90;;;;;;5079075;28;20458;-70
2023/11/26 11:15:49;;;;;;;8.50;8.40;;;7.60;99.90;;;;;;5077119;28;20482;-72
2023/11/26 11:18:41;;;;;;;8.10;8.00;;;7.70;99.90;;;;;;5079779;28;20551;-69
2023/11/26 11:21:10;;;;;;;9.03;8.83;;;7.60;99.90;;;;;;5080399;28;20494;-70
2023/11/26 11:23:40;;;;;;;8.53;8.43;;;7.70;99.90;;;;;;5088335;28;20815;-72
2023/11/26 11:26:08;;;;;;;7.97;7.87;;;7.70;99.90;;;;;;5086976;28;20450;-70
2023/11/26 11:28:37;;;;;;;8.30;8.20;;;7.70;99.90;;;;;;5073755;28;20447;-70
2023/11/26 11:31:03;;;;;;;7.47;7.37;;;7.70;99.90;;;;;;5068525;28;20481;-70
2023/11/26 11:33:30;;;;;;;7.43;7.33;;;7.40;99.90;;;;;;5086864;28;20537;-72
2023/11/26 11:35:57;;;;;;;7.60;7.50;;;7.40;99.90;;;;;;5087211;28;20851;-70
2023/11/26 11:38:26;;;;;;;7.63;7.53;;;7.40;99.90;;;;;;5086701;28;20970;-71
2023/11/26 11:41:16;;;;;;;8.37;8.27;;;7.20;99.90;;;;;;5070705;28;20466;-70
2023/11/26 11:43:43;;;;;;;9.03;8.83;;;7.40;99.90;;;;;;5075720;28;20961;-71
2023/11/26 11:46:47;;;;;;;8.70;8.60;;;7.30;99.90;;;;;;5085159;28;20457;-71
2023/11/26 11:49:13;;;;;;;8.50;8.40;;;7.30;99.90;;;;;;5082468;28;20464;-71
2023/11/26 11:51:44;;;;;;;8.70;8.60;;;7.30;99.90;;;;;;5079576;28;20455;-72
2023/11/26 11:54:35;;;;;;;8.40;8.30;;;7.50;99.90;;;;;;5075025;28;20474;-71
2023/11/26 11:57:04;;;;;;;7.73;7.63;;;7.50;99.90;;;;;;5070151;28;20458;-73
2023/11/26 11:59:31;;;;;;;7.97;7.87;;;7.60;99.90;;;;;;5085905;28;20486;-70
2023/11/26 12:02:00;;;;;;;8.20;8.10;;;7.60;99.90;;;;;;5087388;28;20454;-67
2023/11/26 12:04:40;;;;;;;7.90;7.80;;;7.60;99.90;;;;;;5081658;28;20462;-72
2023/11/26 12:07:07;;;;;;;7.27;7.17;;;7.60;99.90;;;;;;5087008;28;20465;-69
2023/11/26 12:09:38;;;;;;;8.17;8.07;;;7.50;99.90;;;;;;5086260;28;20465;-71
2023/11/26 12:12:08;;;;;;;8.70;8.60;;;7.60;99.90;;;;;;5077369;28;21003;-70
2023/11/26 12:14:34;;;;;;;8.40;8.30;;;7.70;99.90;;;;;;5079861;28;20466;-71
2023/11/26 12:17:06;;;;;;;8.67;8.57;;;7.70;99.90;;;;;;5093086;28;20454;-73
2023/11/26 12:19:39;;;;;;;8.20;8.10;;;7.80;99.90;;;;;;5083631;28;21249;-71
2023/11/26 12:22:07;;;;;;;8.33;8.23;;;7.90;99.90;;;;;;5076168;28;20890;-70
2023/11/26 12:24:35;;;;;;;8.37;8.27;;;7.90;99.90;;;;;;5066249;28;20520;-69
2023/11/26 12:27:02;;;;;;;8.67;8.57;;;7.80;99.90;;;;;;5064161;28;20534;-72
2023/11/26 12:29:31;;;;;;;8.57;8.47;;;7.70;99.90;;;;;;5053875;28;20566;-71
2023/11/26 12:32:00;;;;;;;9.10;8.90;;;7.70;99.90;;;;;;5068665;28;21046;-71
2023/11/26 12:34:27;;;;;;;9.57;9.37;;;7.60;99.90;;;;;;5061368;28;20491;-69
2023/11/26 12:36:54;;;;;;;9.60;9.40;;;7.50;99.90;;;;;;5064994;28;20487;-70
2023/11/26 12:39:22;;;;;;;9.70;9.50;;;7.50;99.90;;;;;;5062713;28;20467;-72
2023/11/26 12:41:49;;;;;;;8.80;8.60;;;7.40;99.90;;;;;;5060372;28;20463;-71
2023/11/26 12:44:17;;;;;;;9.20;9.00;;;7.40;99.90;;;;;;5064426;28;20468;-72
2023/11/26 12:46:45;;;;;;;9.30;9.10;;;7.40;99.90;;;;;;5074363;28;20471;-71
2023/11/26 12:49:16;;;;;;;9.20;9.00;;;7.40;99.90;;;;;;5063840;28;20471;-69
2023/11/26 12:51:43;;;;;;;9.40;9.20;;;7.40;99.90;;;;;;5068866;28;20456;-70